Time;durP1;ratioP1;P1;durP2;ratioP2;P2;SDS_P1;SDS_P2;PMS_P1;PMS_P2;Temp;Humidity;BMP_temperature;BMP_pressure;BME280_temperature;BME280_humidity;BME280_pressure;Samples;Min_cycle;Max_cycle;Signal;HPM_P1;HPM_P2
2023/01/21 00:01:10;;;;;;;59.53;30.02;;;;;;;;;;4937475;28;94924;-69
2023/01/21 00:03:37;;;;;;;64.10;30.60;;;;;;;;;;4934552;28;92530;-69
2023/01/21 00:06:03;;;;;;;65.07;29.85;;;;;;;;;;4928071;28;92425;-69
2023/01/21 00:08:30;;;;;;;69.28;29.88;;;;;;;;;;4915079;28;93628;-69
2023/01/21 00:10:56;;;;;;;64.97;30.48;;;;;;;;;;4915028;28;92696;-69
2023/01/21 00:13:22;;;;;;;63.60;29.90;;;;;;;;;;4926820;28;94136;-69
2023/01/21 00:15:49;;;;;;;69.00;30.65;;;;;;;;;;4934204;28;92555;-69
2023/01/21 00:18:15;;;;;;;66.95;28.73;;;;;;;;;;4929905;28;92513;-68
2023/01/21 00:20:41;;;;;;;60.75;28.73;;;;;;;;;;4913669;28;93229;-69
2023/01/21 00:23:09;;;;;;;68.10;29.80;;;;;;;;;;4931476;28;96312;-68
2023/01/21 00:25:36;;;;;;;63.55;28.55;;;;;;;;;;4933137;28;95626;-68
2023/01/21 00:28:02;;;;;;;65.00;28.92;;;;;;;;;;4933550;28;93494;-68
2023/01/21 00:30:29;;;;;;;65.40;28.45;;;;;;;;;;4933095;28;92667;-68
2023/01/21 00:32:55;;;;;;;58.60;26.75;;;;;;;;;;4932190;28;93741;-69
2023/01/21 00:35:22;;;;;;;65.05;27.55;;;;;;;;;;4923093;28;93684;-68
2023/01/21 00:37:49;;;;;;;69.53;29.33;;;;;;;;;;4919999;28;93720;-68
2023/01/21 00:40:16;;;;;;;60.85;27.30;;;;;;;;;;4932824;28;94469;-68
2023/01/21 00:42:42;;;;;;;61.67;26.77;;;;;;;;;;4932442;28;93477;-68
2023/01/21 00:45:09;;;;;;;57.88;26.17;;;;;;;;;;4934602;28;93033;-68
2023/01/21 00:47:35;;;;;;;61.10;27.83;;;;;;;;;;4946463;28;97164;-68
2023/01/21 00:50:02;;;;;;;58.22;26.35;;;;;;;;;;4939236;28;92527;-68
2023/01/21 00:52:28;;;;;;;62.95;26.00;;;;;;;;;;4942673;28;93472;-69
2023/01/21 00:54:54;;;;;;;55.35;24.98;;;;;;;;;;4936708;28;93698;-69
2023/01/21 00:57:20;;;;;;;58.85;26.00;;;;;;;;;;4932197;28;92909;-69
2023/01/21 00:59:47;;;;;;;55.50;25.65;;;;;;;;;;4932462;28;93247;-68
2023/01/21 01:02:13;;;;;;;59.45;26.80;;;;;;;;;;4944247;28;94537;-68
2023/01/21 01:04:40;;;;;;;51.83;26.02;;;;;;;;;;4940721;28;91729;-69
2023/01/21 01:07:06;;;;;;;57.67;25.20;;;;;;;;;;4941306;28;94186;-68
2023/01/21 01:09:32;;;;;;;56.55;26.60;;;;;;;;;;4941701;28;93272;-68
2023/01/21 01:12:00;;;;;;;58.28;26.40;;;;;;;;;;4936161;28;94960;-68
2023/01/21 01:14:26;;;;;;;50.92;23.90;;;;;;;;;;4936544;28;93956;-69
2023/01/21 01:16:52;;;;;;;52.38;24.77;;;;;;;;;;4935538;28;93290;-69
2023/01/21 01:19:19;;;;;;;55.22;25.63;;;;;;;;;;4938237;28;93269;-69
2023/01/21 01:21:45;;;;;;;61.22;24.75;;;;;;;;;;4935481;28;93417;-69
2023/01/21 01:24:11;;;;;;;55.58;25.10;;;;;;;;;;4934551;28;92505;-69
2023/01/21 01:26:39;;;;;;;61.13;25.90;;;;;;;;;;4939028;28;93281;-68
2023/01/21 01:29:10;;;;;;;56.05;25.55;;;;;;;;;;4936111;28;91861;-69
2023/01/21 01:31:36;;;;;;;51.08;23.85;;;;;;;;;;4935266;28;92516;-68
2023/01/21 01:34:02;;;;;;;58.33;24.88;;;;;;;;;;4935793;28;93644;-68
2023/01/21 01:36:29;;;;;;;55.40;24.45;;;;;;;;;;4933309;28;94913;-68
2023/01/21 01:38:55;;;;;;;54.33;24.77;;;;;;;;;;4935333;28;95807;-68
2023/01/21 01:41:23;;;;;;;54.35;24.33;;;;;;;;;;4935544;28;93957;-68
2023/01/21 01:43:59;;;;;;;51.15;23.50;;;;;;;;;;4936238;28;92459;-68
2023/01/21 01:46:27;;;;;;;52.60;24.27;;;;;;;;;;4934406;28;93614;-69
2023/01/21 01:48:59;;;;;;;52.67;23.63;;;;;;;;;;4937851;28;94495;-69
2023/01/21 01:51:29;;;;;;;55.83;23.58;;;;;;;;;;4939544;28;94311;-68
2023/01/21 01:53:56;;;;;;;53.42;24.45;;;;;;;;;;4943014;28;93485;-68
2023/01/21 01:56:22;;;;;;;54.50;24.17;;;;;;;;;;4939637;28;92806;-68
2023/01/21 01:58:48;;;;;;;49.97;24.88;;;;;;;;;;4936941;28;93209;-68
2023/01/21 02:01:15;;;;;;;49.63;22.70;;;;;;;;;;4932898;28;95761;-68
2023/01/21 02:03:43;;;;;;;47.92;23.52;;;;;;;;;;4946384;28;92497;-69
2023/01/21 02:06:10;;;;;;;50.72;24.38;;;;;;;;;;4945770;28;93596;-68
2023/01/21 02:08:36;;;;;;;53.83;24.05;;;;;;;;;;4933687;28;94086;-68
2023/01/21 02:11:08;;;;;;;55.03;24.58;;;;;;;;;;4936435;28;92643;-68
2023/01/21 02:13:35;;;;;;;52.38;23.25;;;;;;;;;;4951277;28;93672;-69
2023/01/21 02:16:13;;;;;;;54.67;23.13;;;;;;;;;;4945370;28;94086;-68
2023/01/21 02:18:39;;;;;;;60.78;22.92;;;;;;;;;;4936109;28;93207;-69
2023/01/21 02:21:21;;;;;;;52.53;23.42;;;;;;;;;;4933621;28;93680;-69
2023/01/21 02:24:23;;;;;;;50.00;23.38;;;;;;;;;;4933170;28;93949;-68
2023/01/21 02:26:49;;;;;;;52.25;23.95;;;;;;;;;;4873796;28;96696;-69
2023/01/21 02:29:15;;;;;;;53.50;23.52;;;;;;;;;;4892547;28;94186;-68
2023/01/21 02:31:50;;;;;;;51.08;23.35;;;;;;;;;;4894558;28;92510;-68
2023/01/21 02:34:25;;;;;;;54.78;22.98;;;;;;;;;;4883053;28;92486;-68
2023/01/21 02:36:57;;;;;;;47.97;23.00;;;;;;;;;;4893892;28;92682;-68
2023/01/21 02:39:39;;;;;;;53.15;23.80;;;;;;;;;;4893632;28;93278;-68
2023/01/21 02:42:16;;;;;;;57.10;23.75;;;;;;;;;;4893515;28;93581;-68
2023/01/21 02:44:47;;;;;;;53.92;23.35;;;;;;;;;;4894610;28;91767;-68
2023/01/21 02:47:25;;;;;;;50.08;21.98;;;;;;;;;;4878311;28;92882;-68
2023/01/21 02:49:55;;;;;;;56.30;23.27;;;;;;;;;;4872197;28;94474;-68
2023/01/21 02:52:22;;;;;;;51.13;23.63;;;;;;;;;;4891993;28;95075;-68
2023/01/21 02:54:52;;;;;;;53.88;23.05;;;;;;;;;;4897026;28;98853;-68
2023/01/21 02:57:24;;;;;;;53.20;23.58;;;;;;;;;;4906453;28;93805;-68
2023/01/21 02:59:53;;;;;;;56.75;23.92;;;;;;;;;;4897372;28;94263;-68
2023/01/21 03:02:41;;;;;;;49.38;23.20;;;;;;;;;;4934465;28;93294;-68
2023/01/21 03:05:10;;;;;;;53.13;23.60;;;;;;;;;;4951218;28;92451;-69
2023/01/21 03:07:46;;;;;;;52.15;23.20;;;;;;;;;;4948617;28;93747;-69
2023/01/21 03:10:16;;;;;;;51.20;22.38;;;;;;;;;;4933979;28;93575;-68
2023/01/21 03:12:52;;;;;;;48.37;21.70;;;;;;;;;;4935105;28;92522;-68
2023/01/21 03:18:07;;;;;;;57.53;22.95;;;;;;;;;;4940000;28;95938;-69
2023/01/21 03:20:36;;;;;;;50.08;22.05;;;;;;;;;;4934715;28;96120;-68
2023/01/21 03:23:05;;;;;;;50.08;21.27;;;;;;;;;;4933926;28;93665;-68
2023/01/21 03:25:32;;;;;;;56.55;23.40;;;;;;;;;;4949496;28;92958;-69
2023/01/21 03:27:59;;;;;;;56.47;23.75;;;;;;;;;;4932553;28;94504;-68
2023/01/21 03:30:26;;;;;;;50.97;23.08;;;;;;;;;;4942955;28;93944;-68
2023/01/21 03:32:54;;;;;;;55.10;23.40;;;;;;;;;;4933913;28;94045;-68
2023/01/21 03:35:29;;;;;;;52.47;24.20;;;;;;;;;;4933149;28;93495;-68
2023/01/21 03:38:10;;;;;;;55.83;23.38;;;;;;;;;;4934390;28;93375;-68
2023/01/21 03:40:40;;;;;;;56.90;23.25;;;;;;;;;;4937269;28;92436;-68
2023/01/21 03:43:08;;;;;;;51.63;22.73;;;;;;;;;;4932184;28;95849;-68
2023/01/21 03:45:48;;;;;;;55.10;24.02;;;;;;;;;;4933867;28;92463;-69
2023/01/21 03:48:19;;;;;;;47.73;23.37;;;;;;;;;;4934127;28;93495;-69
2023/01/21 03:50:58;;;;;;;55.40;24.13;;;;;;;;;;4932605;28;93473;-68
2023/01/21 03:53:24;;;;;;;58.55;23.48;;;;;;;;;;4932811;28;92546;-69
2023/01/21 03:55:51;;;;;;;56.22;22.52;;;;;;;;;;4934639;28;93516;-68
2023/01/21 03:58:17;;;;;;;53.67;23.42;;;;;;;;;;4932881;28;93750;-68
2023/01/21 04:00:45;;;;;;;50.05;22.90;;;;;;;;;;4932356;28;91837;-68
2023/01/21 04:03:11;;;;;;;51.35;22.38;;;;;;;;;;4928887;28;92583;-68
2023/01/21 04:05:38;;;;;;;51.75;22.40;;;;;;;;;;4934487;28;93734;-68
2023/01/21 04:08:04;;;;;;;54.25;23.23;;;;;;;;;;4940081;28;94886;-68
2023/01/21 04:10:30;;;;;;;60.58;24.15;;;;;;;;;;4933183;28;93657;-68
2023/01/21 04:12:57;;;;;;;54.33;23.48;;;;;;;;;;4931941;28;92441;-68
2023/01/21 04:15:23;;;;;;;44.70;22.13;;;;;;;;;;4937261;28;93583;-68
2023/01/21 04:17:49;;;;;;;51.55;23.65;;;;;;;;;;4940225;28;94852;-69
2023/01/21 04:20:16;;;;;;;51.67;24.17;;;;;;;;;;4936531;28;92517;-69
2023/01/21 04:22:42;;;;;;;59.55;23.25;;;;;;;;;;4933633;28;93671;-68
2023/01/21 04:25:09;;;;;;;50.60;23.30;;;;;;;;;;4935887;28;92723;-68
2023/01/21 04:27:35;;;;;;;57.17;22.70;;;;;;;;;;4932923;28;93166;-68
2023/01/21 04:30:01;;;;;;;60.65;23.00;;;;;;;;;;4935701;28;93409;-68
2023/01/21 04:32:28;;;;;;;52.90;23.08;;;;;;;;;;4936110;28;95460;-68
2023/01/21 04:34:54;;;;;;;48.45;22.52;;;;;;;;;;4936134;28;95975;-68
2023/01/21 04:37:20;;;;;;;50.33;23.67;;;;;;;;;;4940976;28;93601;-68
2023/01/21 04:39:46;;;;;;;54.28;23.40;;;;;;;;;;4934767;28;92446;-68
2023/01/21 04:42:13;;;;;;;53.35;23.77;;;;;;;;;;4944285;28;93282;-68
2023/01/21 04:44:39;;;;;;;60.33;24.63;;;;;;;;;;4943226;28;92486;-68
2023/01/21 04:47:05;;;;;;;56.78;23.05;;;;;;;;;;4945472;28;92410;-68
2023/01/21 04:49:32;;;;;;;50.42;23.58;;;;;;;;;;4939588;28;91725;-68
2023/01/21 04:51:58;;;;;;;50.92;23.00;;;;;;;;;;4936459;28;92472;-68
2023/01/21 04:54:24;;;;;;;52.17;22.00;;;;;;;;;;4935564;28;95362;-68
2023/01/21 04:56:51;;;;;;;50.25;22.73;;;;;;;;;;4937158;28;95883;-68
2023/01/21 04:59:17;;;;;;;52.83;23.00;;;;;;;;;;4948428;28;92457;-69
2023/01/21 05:01:43;;;;;;;47.03;21.85;;;;;;;;;;4937365;28;93345;-68
2023/01/21 05:04:10;;;;;;;50.97;22.13;;;;;;;;;;4937670;28;93407;-69
2023/01/21 05:06:36;;;;;;;53.20;22.95;;;;;;;;;;4956793;28;93025;-69
2023/01/21 05:09:02;;;;;;;43.03;20.88;;;;;;;;;;4935074;28;93103;-70
2023/01/21 05:11:28;;;;;;;53.80;22.80;;;;;;;;;;4932709;28;92476;-70
2023/01/21 05:13:55;;;;;;;58.58;24.67;;;;;;;;;;4941701;28;93184;-69
2023/01/21 05:16:21;;;;;;;50.85;23.10;;;;;;;;;;4933864;28;93592;-69
2023/01/21 05:18:48;;;;;;;49.65;22.25;;;;;;;;;;4942729;28;93860;-69
2023/01/21 05:21:14;;;;;;;58.20;24.13;;;;;;;;;;4932143;28;94995;-69
2023/01/21 05:23:41;;;;;;;55.63;23.70;;;;;;;;;;4935707;28;93646;-69
2023/01/21 05:26:07;;;;;;;57.72;22.30;;;;;;;;;;4947144;28;93094;-69
2023/01/21 05:28:33;;;;;;;52.97;22.60;;;;;;;;;;4942525;28;93291;-69
2023/01/21 05:31:00;;;;;;;50.20;22.63;;;;;;;;;;4934950;28;93412;-69
2023/01/21 05:33:33;;;;;;;50.53;22.77;;;;;;;;;;4936275;28;93266;-69
2023/01/21 05:36:00;;;;;;;49.60;23.05;;;;;;;;;;4935281;28;94519;-70
2023/01/21 05:38:27;;;;;;;54.45;22.75;;;;;;;;;;4936173;28;91811;-69
2023/01/21 05:40:57;;;;;;;51.70;23.00;;;;;;;;;;4935434;28;94015;-69
2023/01/21 05:43:23;;;;;;;54.53;24.30;;;;;;;;;;4936333;28;93367;-69
2023/01/21 05:45:50;;;;;;;51.28;23.08;;;;;;;;;;4934885;28;94795;-69
2023/01/21 05:48:16;;;;;;;57.97;23.10;;;;;;;;;;4935954;28;95955;-69
2023/01/21 05:50:43;;;;;;;62.80;25.02;;;;;;;;;;4937270;28;94603;-69
2023/01/21 05:53:09;;;;;;;58.45;24.45;;;;;;;;;;4934495;28;93569;-69
2023/01/21 05:55:36;;;;;;;51.10;23.25;;;;;;;;;;4931606;28;93310;-69
2023/01/21 05:58:02;;;;;;;60.35;24.83;;;;;;;;;;4925728;28;92418;-69
2023/01/21 06:00:28;;;;;;;49.28;23.98;;;;;;;;;;4929108;28;93569;-68
2023/01/21 06:02:54;;;;;;;56.03;23.98;;;;;;;;;;4951497;28;93620;-69
2023/01/21 06:05:21;;;;;;;58.78;24.92;;;;;;;;;;4943874;28;92545;-68
2023/01/21 06:07:48;;;;;;;62.35;25.92;;;;;;;;;;4952286;28;93190;-70
2023/01/21 06:10:15;;;;;;;70.63;28.65;;;;;;;;;;4942392;28;95797;-69
2023/01/21 06:12:42;;;;;;;70.75;27.33;;;;;;;;;;4939785;28;92393;-69
2023/01/21 06:15:08;;;;;;;65.25;27.30;;;;;;;;;;4946895;28;93496;-69
2023/01/21 06:17:37;;;;;;;70.93;28.52;;;;;;;;;;4928292;28;92452;-69
2023/01/21 06:20:04;;;;;;;76.72;29.23;;;;;;;;;;4945650;28;93689;-69
2023/01/21 06:22:30;;;;;;;87.85;30.10;;;;;;;;;;4954938;28;94476;-68
2023/01/21 06:24:56;;;;;;;86.03;30.65;;;;;;;;;;4950985;28;92529;-69
2023/01/21 06:27:22;;;;;;;88.22;30.83;;;;;;;;;;4947575;28;93425;-69
2023/01/21 06:29:49;;;;;;;91.85;31.35;;;;;;;;;;4954575;28;92688;-70
2023/01/21 06:32:15;;;;;;;91.32;32.50;;;;;;;;;;4952716;28;92762;-69
2023/01/21 06:34:41;;;;;;;97.80;32.83;;;;;;;;;;4941572;28;96882;-69
2023/01/21 06:37:10;;;;;;;80.70;31.20;;;;;;;;;;4950740;28;92508;-69
2023/01/21 06:39:37;;;;;;;101.55;33.22;;;;;;;;;;4954400;28;93514;-69
2023/01/21 06:42:03;;;;;;;90.05;32.17;;;;;;;;;;4955673;28;93368;-69
2023/01/21 06:44:30;;;;;;;95.47;32.60;;;;;;;;;;4938658;28;93198;-69
2023/01/21 06:46:56;;;;;;;98.72;32.63;;;;;;;;;;4930873;28;93238;-69
2023/01/21 06:49:27;;;;;;;100.57;34.22;;;;;;;;;;4935614;28;92816;-69
2023/01/21 06:51:53;;;;;;;124.70;35.72;;;;;;;;;;4936763;28;91734;-69
2023/01/21 06:54:19;;;;;;;98.53;34.40;;;;;;;;;;4948384;28;92826;-69
2023/01/21 06:56:46;;;;;;;114.30;35.35;;;;;;;;;;4938866;28;93587;-69
2023/01/21 06:59:12;;;;;;;113.95;36.90;;;;;;;;;;4941429;28;94992;-69
2023/01/21 07:01:39;;;;;;;105.32;35.42;;;;;;;;;;4951586;28;92812;-69
2023/01/21 07:04:05;;;;;;;104.75;35.42;;;;;;;;;;4953511;28;93971;-69
2023/01/21 07:06:31;;;;;;;113.63;35.17;;;;;;;;;;4951855;28;94337;-70
2023/01/21 07:08:58;;;;;;;118.85;37.20;;;;;;;;;;4953666;28;93789;-69
2023/01/21 07:11:24;;;;;;;114.47;35.67;;;;;;;;;;4952059;28;92519;-70
2023/01/21 07:13:50;;;;;;;145.20;37.13;;;;;;;;;;4950261;28;94313;-69
2023/01/21 07:16:16;;;;;;;101.18;36.72;;;;;;;;;;4939129;28;92943;-69
2023/01/21 07:18:43;;;;;;;105.85;34.25;;;;;;;;;;4933657;28;92812;-69
2023/01/21 07:21:09;;;;;;;114.28;35.00;;;;;;;;;;4951187;28;93455;-69
2023/01/21 07:23:35;;;;;;;122.68;37.25;;;;;;;;;;4944835;28;95094;-69
2023/01/21 07:26:02;;;;;;;115.40;36.13;;;;;;;;;;4933366;28;95563;-69
2023/01/21 07:28:28;;;;;;;142.52;36.50;;;;;;;;;;4944593;28;93408;-69
2023/01/21 07:30:57;;;;;;;123.38;36.53;;;;;;;;;;4935341;28;92530;-69
2023/01/21 07:33:23;;;;;;;110.72;34.90;;;;;;;;;;4934896;28;93446;-69
2023/01/21 07:35:50;;;;;;;124.70;36.55;;;;;;;;;;4925177;28;93996;-69
2023/01/21 07:38:16;;;;;;;103.07;33.88;;;;;;;;;;4920385;28;92664;-69
2023/01/21 07:40:42;;;;;;;127.93;33.50;;;;;;;;;;4915747;28;92795;-69
2023/01/21 07:43:08;;;;;;;104.40;33.42;;;;;;;;;;4915274;28;92605;-69
2023/01/21 07:45:35;;;;;;;115.60;33.80;;;;;;;;;;4932099;28;92509;-69
2023/01/21 07:48:01;;;;;;;100.00;32.05;;;;;;;;;;4929007;28;99401;-68
2023/01/21 07:50:27;;;;;;;97.57;33.05;;;;;;;;;;4925473;28;92472;-69
2023/01/21 07:52:54;;;;;;;105.13;33.75;;;;;;;;;;4925569;28;93304;-69
2023/01/21 07:55:20;;;;;;;96.97;34.75;;;;;;;;;;4930917;28;93430;-69
2023/01/21 07:57:47;;;;;;;101.30;35.47;;;;;;;;;;4933245;28;92486;-69
2023/01/21 08:00:13;;;;;;;100.25;35.22;;;;;;;;;;4932252;28;93550;-70
2023/01/21 08:02:39;;;;;;;111.82;36.22;;;;;;;;;;4921129;28;92497;-70
2023/01/21 08:05:06;;;;;;;131.82;36.58;;;;;;;;;;4953512;28;93296;-69
2023/01/21 08:07:32;;;;;;;108.18;35.05;;;;;;;;;;4940498;28;93340;-69
2023/01/21 08:09:59;;;;;;;104.47;35.72;;;;;;;;;;4928233;28;92450;-69
2023/01/21 08:12:25;;;;;;;112.32;35.35;;;;;;;;;;4933317;28;95230;-69
2023/01/21 08:14:52;;;;;;;114.75;36.38;;;;;;;;;;4939106;28;93582;-69
2023/01/21 08:17:19;;;;;;;108.55;36.42;;;;;;;;;;4944347;28;92545;-69
2023/01/21 08:19:45;;;;;;;94.35;35.65;;;;;;;;;;4941949;28;93343;-68
2023/01/21 08:22:11;;;;;;;112.53;37.35;;;;;;;;;;4940663;28;94438;-69
2023/01/21 08:24:38;;;;;;;101.82;36.92;;;;;;;;;;4936812;28;96386;-68
2023/01/21 08:27:04;;;;;;;108.18;36.83;;;;;;;;;;4937574;28;93520;-69
2023/01/21 08:29:30;;;;;;;109.60;35.92;;;;;;;;;;4936897;28;92033;-69
2023/01/21 08:31:56;;;;;;;98.20;35.97;;;;;;;;;;4935846;28;93077;-69
2023/01/21 08:34:24;;;;;;;112.70;38.67;;;;;;;;;;4943088;28;93464;-70
2023/01/21 08:36:50;;;;;;;100.78;35.60;;;;;;;;;;4955623;28;94840;-69
2023/01/21 08:39:16;;;;;;;100.72;35.40;;;;;;;;;;4955924;28;95476;-69
2023/01/21 08:41:43;;;;;;;107.60;38.10;;;;;;;;;;4945558;28;93391;-69
2023/01/21 08:44:09;;;;;;;102.82;34.35;;;;;;;;;;4941897;28;92657;-69
2023/01/21 08:46:36;;;;;;;141.05;37.47;;;;;;;;;;4937702;28;96619;-69
2023/01/21 08:49:02;;;;;;;108.88;34.72;;;;;;;;;;4937337;28;92511;-69
2023/01/21 08:51:28;;;;;;;99.47;34.58;;;;;;;;;;4924773;28;93265;-69
2023/01/21 08:53:54;;;;;;;83.40;31.27;;;;;;;;;;4937620;28;92767;-70
2023/01/21 08:56:21;;;;;;;88.00;31.15;;;;;;;;;;4937373;28;92475;-69
2023/01/21 08:58:47;;;;;;;86.50;28.98;;;;;;;;;;4934092;28;93066;-70
2023/01/21 09:01:16;;;;;;;88.72;31.48;;;;;;;;;;4934664;28;96267;-69
2023/01/21 09:03:43;;;;;;;76.32;27.95;;;;;;;;;;4935264;28;92627;-69
2023/01/21 09:06:09;;;;;;;84.53;29.02;;;;;;;;;;4938755;28;93074;-70
2023/01/21 09:08:36;;;;;;;77.55;29.23;;;;;;;;;;4937276;28;92440;-70
2023/01/21 09:11:05;;;;;;;73.88;27.65;;;;;;;;;;4933891;28;93481;-69
2023/01/21 09:13:33;;;;;;;117.88;28.90;;;;;;;;;;4938699;28;93514;-68
2023/01/21 09:16:00;;;;;;;75.43;26.98;;;;;;;;;;4931550;28;93030;-68
2023/01/21 09:18:26;;;;;;;70.13;26.65;;;;;;;;;;4935781;28;92037;-67
2023/01/21 09:20:53;;;;;;;75.97;26.58;;;;;;;;;;4944330;28;93333;-67
2023/01/21 09:23:26;;;;;;;78.68;26.98;;;;;;;;;;4942647;28;92526;-68
2023/01/21 09:25:54;;;;;;;77.97;27.50;;;;;;;;;;4938668;28;94821;-68
2023/01/21 09:28:21;;;;;;;79.80;28.60;;;;;;;;;;4934453;28;93129;-68
2023/01/21 09:30:48;;;;;;;76.63;28.02;;;;;;;;;;4938381;28;93930;-67
2023/01/21 09:33:15;;;;;;;92.53;32.03;;;;;;;;;;4956457;28;93636;-68
2023/01/21 09:35:41;;;;;;;82.13;28.88;;;;;;;;;;4944391;28;93435;-68
2023/01/21 09:38:07;;;;;;;84.10;29.23;;;;;;;;;;4938597;28;93651;-68
2023/01/21 09:40:34;;;;;;;86.78;29.52;;;;;;;;;;4954284;28;93601;-68
2023/01/21 09:43:03;;;;;;;90.10;31.60;;;;;;;;;;4955195;28;91692;-68
2023/01/21 09:45:29;;;;;;;81.90;29.55;;;;;;;;;;4951552;28;92488;-68
2023/01/21 09:47:56;;;;;;;114.00;32.13;;;;;;;;;;4939150;28;92591;-68
2023/01/21 09:50:22;;;;;;;92.47;30.95;;;;;;;;;;4949925;28;94894;-68
2023/01/21 09:52:53;;;;;;;94.25;29.90;;;;;;;;;;4955635;28;93941;-68
2023/01/21 09:55:19;;;;;;;;;;;;;;;;;;4956520;28;92526;-67
2023/01/21 09:58:05;;;;;;;83.10;29.73;;;;;;;;;;4956415;28;122678;-68
2023/01/21 10:00:31;;;;;;;90.00;30.13;;;;;;;;;;4949369;28;93617;-69
2023/01/21 10:03:15;;;;;;;87.88;29.45;;;;;;;;;;4952605;28;92729;-69
2023/01/21 10:05:59;;;;;;;88.93;31.10;;;;;;;;;;4955361;28;93254;-69
2023/01/21 10:08:49;;;;;;;97.13;32.83;;;;;;;;;;4956169;28;93076;-69
2023/01/21 10:11:33;;;;;;;91.32;30.13;;;;;;;;;;4953993;28;92537;-69
2023/01/21 10:14:18;;;;;;;85.32;29.80;;;;;;;;;;4914074;28;93614;-69
2023/01/21 10:16:51;;;;;;;83.40;28.88;;;;;;;;;;4934188;28;96727;-68
2023/01/21 10:19:28;;;;;;;83.22;28.40;;;;;;;;;;4939709;28;96187;-68
2023/01/21 10:21:59;;;;;;;84.72;29.27;;;;;;;;;;4936284;28;93840;-68
2023/01/21 10:24:27;;;;;;;78.32;29.23;;;;;;;;;;4935425;28;92561;-69
2023/01/21 10:26:54;;;;;;;79.80;28.52;;;;;;;;;;4936167;28;93053;-69
2023/01/21 10:29:23;;;;;;;80.43;28.65;;;;;;;;;;4946950;28;93475;-68
2023/01/21 10:31:58;;;;;;;76.13;29.27;;;;;;;;;;4945817;28;92543;-67
2023/01/21 10:34:28;;;;;;;114.07;30.63;;;;;;;;;;4948625;28;93142;-69
2023/01/21 10:37:02;;;;;;;81.63;29.58;;;;;;;;;;4935163;28;92467;-68
2023/01/21 10:39:33;;;;;;;77.93;28.95;;;;;;;;;;4939636;28;94356;-69
2023/01/21 10:42:13;;;;;;;80.13;28.15;;;;;;;;;;4932976;28;95951;-69
2023/01/21 10:45:04;;;;;;;75.28;29.95;;;;;;;;;;4953800;28;92476;-69
2023/01/21 10:47:30;;;;;;;;;;;;;;;;;;4928343;28;93239;-69
2023/01/21 10:50:17;;;;;;;75.40;28.13;;;;;;;;;;4940439;28;124079;-68
2023/01/21 10:53:02;;;;;;;87.95;29.30;;;;;;;;;;4935884;28;92491;-68
2023/01/21 10:55:55;;;;;;;71.53;29.98;;;;;;;;;;4936106;28;93646;-68
2023/01/21 10:58:24;;;;;;;87.40;32.30;;;;;;;;;;4933474;28;93805;-68
2023/01/21 11:00:51;;;;;;;90.10;33.25;;;;;;;;;;4941176;28;94492;-68
2023/01/21 11:03:24;;;;;;;97.30;33.97;;;;;;;;;;4933394;28;93917;-68
2023/01/21 11:05:50;;;;;;;86.00;32.28;;;;;;;;;;4934198;28;92621;-68
2023/01/21 11:08:19;;;;;;;81.53;31.83;;;;;;;;;;4948526;28;95099;-67
2023/01/21 11:10:46;;;;;;;87.55;31.55;;;;;;;;;;4938030;28;93434;-68
2023/01/21 11:13:13;;;;;;;86.07;31.08;;;;;;;;;;4935450;28;92430;-68
2023/01/21 11:15:43;;;;;;;83.38;31.75;;;;;;;;;;4939232;28;92969;-68
2023/01/21 11:18:30;;;;;;;82.80;31.25;;;;;;;;;;4934458;28;93682;-68
2023/01/21 11:21:13;;;;;;;77.03;30.75;;;;;;;;;;4953219;28;92718;-68
2023/01/21 11:23:39;;;;;;;72.53;28.23;;;;;;;;;;4949541;28;93328;-68
2023/01/21 11:26:17;;;;;;;82.43;29.20;;;;;;;;;;4953901;28;91721;-68
2023/01/21 11:28:44;;;;;;;84.93;30.75;;;;;;;;;;4947394;28;93656;-68
2023/01/21 11:31:11;;;;;;;76.20;30.85;;;;;;;;;;4934004;28;95120;-68
2023/01/21 11:33:38;;;;;;;82.53;31.05;;;;;;;;;;4952873;28;95340;-68
2023/01/21 11:36:12;;;;;;;71.57;28.38;;;;;;;;;;4952910;28;95821;-68
2023/01/21 11:38:38;;;;;;;68.75;29.05;;;;;;;;;;4948406;28;93463;-68
2023/01/21 11:41:10;;;;;;;81.00;29.27;;;;;;;;;;4937985;28;92447;-68
2023/01/21 11:43:41;;;;;;;63.20;27.48;;;;;;;;;;4934525;28;93767;-68
2023/01/21 11:46:19;;;;;;;65.75;27.95;;;;;;;;;;4933404;28;92538;-68
2023/01/21 11:48:46;;;;;;;64.03;27.40;;;;;;;;;;4933140;28;93022;-68
2023/01/21 11:51:12;;;;;;;64.35;27.38;;;;;;;;;;4932535;28;92987;-68
2023/01/21 11:53:40;;;;;;;67.85;28.73;;;;;;;;;;4932457;28;92495;-68
2023/01/21 11:56:06;;;;;;;57.47;25.58;;;;;;;;;;4943432;28;93345;-69
2023/01/21 11:58:38;;;;;;;54.40;25.55;;;;;;;;;;4930260;28;96548;-69
2023/01/21 12:01:06;;;;;;;55.55;24.25;;;;;;;;;;4933304;28;92603;-69
2023/01/21 12:03:35;;;;;;;49.42;24.08;;;;;;;;;;4937124;28;93597;-68
2023/01/21 12:06:02;;;;;;;48.65;23.35;;;;;;;;;;4933411;28;92499;-68
2023/01/21 12:08:30;;;;;;;44.85;22.40;;;;;;;;;;4942497;28;94287;-68
2023/01/21 12:11:00;;;;;;;43.30;22.10;;;;;;;;;;4934350;28;94082;-69
2023/01/21 12:13:27;;;;;;;;;;;;;;;;;;4935002;28;92527;-68
2023/01/21 12:15:53;;;;;;;48.47;22.85;;;;;;;;;;4943836;28;121907;-67
2023/01/21 12:18:22;;;;;;;39.42;21.75;;;;;;;;;;4949470;28;93617;-68
2023/01/21 12:21:05;;;;;;;37.70;22.25;;;;;;;;;;4954150;28;92558;-68
2023/01/21 12:23:35;;;;;;;36.47;21.52;;;;;;;;;;4943127;28;94800;-68
2023/01/21 12:26:24;;;;;;;39.72;22.30;;;;;;;;;;4949510;28;93367;-69
2023/01/21 12:29:17;;;;;;;34.58;20.95;;;;;;;;;;4921399;28;93837;-68
2023/01/21 12:31:48;;;;;;;34.33;21.92;;;;;;;;;;4920792;28;93407;-69
2023/01/21 12:34:21;;;;;;;35.85;21.48;;;;;;;;;;4931154;28;93326;-68
2023/01/21 12:36:49;;;;;;;38.08;23.17;;;;;;;;;;4940812;28;93724;-69
2023/01/21 12:39:27;;;;;;;38.47;24.23;;;;;;;;;;4950195;28;94822;-69
2023/01/21 12:42:12;;;;;;;40.70;24.63;;;;;;;;;;4938278;28;91783;-68
2023/01/21 12:44:45;;;;;;;48.05;27.45;;;;;;;;;;4953918;28;92835;-68
2023/01/21 12:47:37;;;;;;;48.92;27.08;;;;;;;;;;4934068;28;93458;-68
2023/01/21 12:50:22;;;;;;;49.50;26.48;;;;;;;;;;4936656;28;96285;-68
2023/01/21 12:53:00;;;;;;;50.22;25.52;;;;;;;;;;4941383;28;94516;-69
2023/01/21 12:55:32;;;;;;;51.92;26.58;;;;;;;;;;4953745;28;92655;-68
2023/01/21 12:58:03;;;;;;;45.70;23.73;;;;;;;;;;4935612;28;93259;-68
2023/01/21 13:00:34;;;;;;;51.63;23.73;;;;;;;;;;4949166;28;93282;-68
2023/01/21 13:03:08;;;;;;;47.30;22.65;;;;;;;;;;4951771;28;92650;-68
2023/01/21 13:05:42;;;;;;;43.22;22.23;;;;;;;;;;4944462;28;94235;-68
2023/01/21 13:08:20;;;;;;;46.13;23.15;;;;;;;;;;4937995;28;95906;-68
2023/01/21 13:10:56;;;;;;;53.45;23.85;;;;;;;;;;4953810;28;92565;-68
2023/01/21 13:13:25;;;;;;;50.15;23.85;;;;;;;;;;4958383;28;93275;-68
2023/01/21 13:15:54;;;;;;;46.35;22.10;;;;;;;;;;4941883;28;94836;-68
2023/01/21 13:18:24;;;;;;;49.28;23.23;;;;;;;;;;4935640;28;95865;-68
2023/01/21 13:21:04;;;;;;;47.00;21.85;;;;;;;;;;4938153;28;93810;-68
2023/01/21 13:23:33;;;;;;;47.17;22.47;;;;;;;;;;4935115;28;92736;-68
2023/01/21 13:26:11;;;;;;;50.42;23.42;;;;;;;;;;4935673;28;93759;-68
2023/01/21 13:28:41;;;;;;;49.50;22.92;;;;;;;;;;4935630;28;93697;-68
2023/01/21 13:31:12;;;;;;;51.80;22.92;;;;;;;;;;4954732;28;92881;-68
2023/01/21 13:33:53;;;;;;;53.95;23.55;;;;;;;;;;4958345;28;93249;-68
2023/01/21 13:36:38;;;;;;;51.97;22.23;;;;;;;;;;4947265;28;92806;-68
2023/01/21 13:39:13;;;;;;;51.03;23.20;;;;;;;;;;4936524;28;93645;-68
2023/01/21 13:41:46;;;;;;;52.55;24.05;;;;;;;;;;4935081;28;95850;-68
2023/01/21 13:44:31;;;;;;;54.72;24.63;;;;;;;;;;4954403;28;92621;-68
2023/01/21 13:47:07;;;;;;;55.05;24.23;;;;;;;;;;4938241;28;93401;-68
2023/01/21 13:49:36;;;;;;;49.45;21.98;;;;;;;;;;4954927;28;93498;-68
2023/01/21 13:52:21;;;;;;;52.17;21.95;;;;;;;;;;4954150;28;92498;-68
2023/01/21 13:54:51;;;;;;;53.08;23.23;;;;;;;;;;4948306;28;93499;-68
2023/01/21 13:57:29;;;;;;;57.08;22.58;;;;;;;;;;4945819;28;93495;-68
2023/01/21 14:00:02;;;;;;;51.20;21.67;;;;;;;;;;4956677;28;94177;-68
2023/01/21 14:02:35;;;;;;;53.03;23.10;;;;;;;;;;4954579;28;93230;-68
2023/01/21 14:05:12;;;;;;;62.08;22.35;;;;;;;;;;4946019;28;94134;-68
2023/01/21 14:07:42;;;;;;;56.15;23.40;;;;;;;;;;4934315;28;95255;-69
2023/01/21 14:10:21;;;;;;;50.65;23.27;;;;;;;;;;4942963;28;93325;-68
2023/01/21 14:12:57;;;;;;;52.55;21.73;;;;;;;;;;4955175;28;92493;-68
2023/01/21 14:15:23;;;;;;;53.70;23.50;;;;;;;;;;4948248;28;93061;-68
2023/01/21 14:18:02;;;;;;;58.15;24.23;;;;;;;;;;4935439;28;93685;-68
2023/01/21 14:20:38;;;;;;;56.08;23.02;;;;;;;;;;4952695;28;92976;-68
2023/01/21 14:23:05;;;;;;;48.28;22.35;;;;;;;;;;4948594;28;93914;-68
2023/01/21 14:25:37;;;;;;;53.55;21.92;;;;;;;;;;4935512;28;91979;-68
2023/01/21 14:28:21;;;;;;;50.20;22.08;;;;;;;;;;4935285;28;92486;-68
2023/01/21 14:31:06;;;;;;;49.58;22.10;;;;;;;;;;4934685;28;92724;-68
2023/01/21 14:33:36;;;;;;;50.97;21.27;;;;;;;;;;4945822;28;94972;-68